sensor_id;sensor_type;location;lat;lon;timestamp;P1;durP1;ratioP1;P2;durP2;ratioP2
47299;SDS011;33036;51.320;17.234;2022-08-04T00:01:44;14.02;;;6.80;;
47299;SDS011;33036;51.320;17.234;2022-08-04T00:06:02;13.15;;;6.43;;
47299;SDS011;33036;51.320;17.234;2022-08-04T00:10:04;9.43;;;6.68;;
47299;SDS011;33036;51.320;17.234;2022-08-04T00:14:09;14.48;;;7.25;;
47299;SDS011;33036;51.320;17.234;2022-08-04T00:18:15;10.30;;;6.68;;
47299;SDS011;33036;51.320;17.234;2022-08-04T00:22:18;13.38;;;6.70;;
47299;SDS011;33036;51.320;17.234;2022-08-04T00:26:21;10.85;;;7.35;;
47299;SDS011;33036;51.320;17.234;2022-08-04T00:30:23;8.30;;;7.03;;
47299;SDS011;33036;51.320;17.234;2022-08-04T00:34:27;12.30;;;7.28;;
47299;SDS011;33036;51.320;17.234;2022-08-04T00:38:29;12.40;;;7.47;;
47299;SDS011;33036;51.320;17.234;2022-08-04T00:42:40;11.23;;;7.53;;
47299;SDS011;33036;51.320;17.234;2022-08-04T00:56:03;14.85;;;7.43;;
47299;SDS011;33036;51.320;17.234;2022-08-04T01:00:26;15.15;;;7.75;;
47299;SDS011;33036;51.320;17.234;2022-08-04T01:21:50;13.20;;;7.40;;
47299;SDS011;33036;51.320;17.234;2022-08-04T01:30:40;8.95;;;7.25;;
47299;SDS011;33036;51.320;17.234;2022-08-04T01:34:45;15.68;;;7.88;;
47299;SDS011;33036;51.320;17.234;2022-08-04T01:38:49;13.45;;;7.47;;
47299;SDS011;33036;51.320;17.234;2022-08-04T01:42:53;19.75;;;8.25;;
47299;SDS011;33036;51.320;17.234;2022-08-04T01:46:55;10.73;;;7.38;;
47299;SDS011;33036;51.320;17.234;2022-08-04T01:50:57;11.60;;;8.70;;
47299;SDS011;33036;51.320;17.234;2022-08-04T01:55:00;12.75;;;7.88;;
47299;SDS011;33036;51.320;17.234;2022-08-04T01:59:03;13.77;;;8.40;;
47299;SDS011;33036;51.320;17.234;2022-08-04T02:03:05;13.75;;;9.18;;
47299;SDS011;33036;51.320;17.234;2022-08-04T02:11:22;10.70;;;8.27;;
47299;SDS011;33036;51.320;17.234;2022-08-04T02:19:35;11.77;;;8.95;;
47299;SDS011;33036;51.320;17.234;2022-08-04T02:23:45;12.45;;;9.18;;
47299;SDS011;33036;51.320;17.234;2022-08-04T02:32:18;18.45;;;9.55;;
47299;SDS011;33036;51.320;17.234;2022-08-04T02:36:33;18.63;;;9.75;;
47299;SDS011;33036;51.320;17.234;2022-08-04T02:40:41;20.17;;;9.80;;
47299;SDS011;33036;51.320;17.234;2022-08-04T02:44:42;26.55;;;11.25;;
47299;SDS011;33036;51.320;17.234;2022-08-04T02:48:50;16.48;;;11.20;;
47299;SDS011;33036;51.320;17.234;2022-08-04T02:52:52;20.42;;;11.88;;
47299;SDS011;33036;51.320;17.234;2022-08-04T02:56:56;17.65;;;11.27;;
47299;SDS011;33036;51.320;17.234;2022-08-04T03:00:57;16.65;;;11.48;;
47299;SDS011;33036;51.320;17.234;2022-08-04T03:05:02;21.45;;;12.02;;
47299;SDS011;33036;51.320;17.234;2022-08-04T04:22:51;17.48;;;10.60;;
47299;SDS011;33036;51.320;17.234;2022-08-04T04:27:00;14.63;;;10.52;;
47299;SDS011;33036;51.320;17.234;2022-08-04T04:40:27;15.25;;;8.55;;
47299;SDS011;33036;51.320;17.234;2022-08-04T04:44:42;13.27;;;8.85;;
47299;SDS011;33036;51.320;17.234;2022-08-04T04:48:53;14.57;;;9.18;;
47299;SDS011;33036;51.320;17.234;2022-08-04T04:53:06;12.60;;;8.73;;
47299;SDS011;33036;51.320;17.234;2022-08-04T05:14:35;19.90;;;10.60;;
47299;SDS011;33036;51.320;17.234;2022-08-04T05:18:43;15.90;;;9.55;;
47299;SDS011;33036;51.320;17.234;2022-08-04T05:22:50;12.40;;;9.50;;
47299;SDS011;33036;51.320;17.234;2022-08-04T05:27:02;15.13;;;9.60;;
47299;SDS011;33036;51.320;17.234;2022-08-04T05:31:09;16.23;;;9.82;;
47299;SDS011;33036;51.320;17.234;2022-08-04T05:35:33;27.05;;;10.30;;
47299;SDS011;33036;51.320;17.234;2022-08-04T05:39:47;15.57;;;10.57;;
47299;SDS011;33036;51.320;17.234;2022-08-04T05:43:52;19.30;;;10.93;;
47299;SDS011;33036;51.320;17.234;2022-08-04T05:47:53;12.40;;;9.60;;
47299;SDS011;33036;51.320;17.234;2022-08-04T05:51:56;12.18;;;10.30;;
47299;SDS011;33036;51.320;17.234;2022-08-04T05:55:59;17.10;;;10.02;;
47299;SDS011;33036;51.320;17.234;2022-08-04T06:00:03;13.00;;;9.32;;
47299;SDS011;33036;51.320;17.234;2022-08-04T06:04:06;14.38;;;9.85;;
47299;SDS011;33036;51.320;17.234;2022-08-04T06:08:08;17.88;;;10.88;;
47299;SDS011;33036;51.320;17.234;2022-08-04T06:16:39;14.88;;;9.85;;
47299;SDS011;33036;51.320;17.234;2022-08-04T06:20:42;13.55;;;10.07;;
47299;SDS011;33036;51.320;17.234;2022-08-04T06:24:45;17.48;;;9.57;;
47299;SDS011;33036;51.320;17.234;2022-08-04T06:28:48;12.13;;;9.55;;
47299;SDS011;33036;51.320;17.234;2022-08-04T06:32:51;18.08;;;10.13;;
47299;SDS011;33036;51.320;17.234;2022-08-04T06:36:55;20.77;;;11.05;;
47299;SDS011;33036;51.320;17.234;2022-08-04T06:41:01;21.42;;;9.82;;
47299;SDS011;33036;51.320;17.234;2022-08-04T06:45:03;16.13;;;10.52;;
47299;SDS011;33036;51.320;17.234;2022-08-04T06:49:05;16.25;;;9.88;;
47299;SDS011;33036;51.320;17.234;2022-08-04T06:53:07;14.73;;;9.65;;
47299;SDS011;33036;51.320;17.234;2022-08-04T06:57:09;14.77;;;9.85;;
47299;SDS011;33036;51.320;17.234;2022-08-04T07:01:14;12.80;;;9.70;;
47299;SDS011;33036;51.320;17.234;2022-08-04T07:05:17;14.80;;;9.75;;
47299;SDS011;33036;51.320;17.234;2022-08-04T07:09:18;15.52;;;10.10;;
47299;SDS011;33036;51.320;17.234;2022-08-04T07:13:21;14.68;;;9.07;;
47299;SDS011;33036;51.320;17.234;2022-08-04T07:17:22;13.30;;;9.50;;
47299;SDS011;33036;51.320;17.234;2022-08-04T07:21:23;17.38;;;8.85;;
47299;SDS011;33036;51.320;17.234;2022-08-04T07:25:26;12.00;;;9.15;;
47299;SDS011;33036;51.320;17.234;2022-08-04T07:29:28;14.65;;;7.80;;
47299;SDS011;33036;51.320;17.234;2022-08-04T07:33:29;21.52;;;8.82;;
47299;SDS011;33036;51.320;17.234;2022-08-04T07:37:33;18.00;;;8.90;;
47299;SDS011;33036;51.320;17.234;2022-08-04T07:41:34;14.45;;;8.45;;
47299;SDS011;33036;51.320;17.234;2022-08-04T07:45:36;17.85;;;8.80;;
47299;SDS011;33036;51.320;17.234;2022-08-04T07:49:37;12.13;;;9.00;;
47299;SDS011;33036;51.320;17.234;2022-08-04T07:53:38;13.45;;;8.70;;
47299;SDS011;33036;51.320;17.234;2022-08-04T07:57:40;9.80;;;8.20;;
47299;SDS011;33036;51.320;17.234;2022-08-04T08:01:41;11.23;;;8.23;;
47299;SDS011;33036;51.320;17.234;2022-08-04T08:05:42;13.68;;;8.98;;
47299;SDS011;33036;51.320;17.234;2022-08-04T08:09:43;11.65;;;8.68;;
47299;SDS011;33036;51.320;17.234;2022-08-04T08:13:44;17.58;;;9.13;;
47299;SDS011;33036;51.320;17.234;2022-08-04T08:17:45;12.05;;;9.02;;
47299;SDS011;33036;51.320;17.234;2022-08-04T08:21:46;10.75;;;7.25;;
47299;SDS011;33036;51.320;17.234;2022-08-04T08:25:51;11.60;;;7.78;;
47299;SDS011;33036;51.320;17.234;2022-08-04T08:29:52;11.35;;;8.27;;
47299;SDS011;33036;51.320;17.234;2022-08-04T08:33:53;10.75;;;7.70;;
47299;SDS011;33036;51.320;17.234;2022-08-04T08:37:55;10.25;;;7.60;;
47299;SDS011;33036;51.320;17.234;2022-08-04T09:04:25;10.63;;;8.05;;
47299;SDS011;33036;51.320;17.234;2022-08-04T09:13:14;14.48;;;7.50;;
47299;SDS011;33036;51.320;17.234;2022-08-04T09:17:46;9.88;;;7.07;;
47299;SDS011;33036;51.320;17.234;2022-08-04T09:26:33;10.80;;;5.75;;
47299;SDS011;33036;51.320;17.234;2022-08-04T09:30:39;7.78;;;6.05;;
47299;SDS011;33036;51.320;17.234;2022-08-04T09:35:01;9.90;;;6.40;;
47299;SDS011;33036;51.320;17.234;2022-08-04T09:47:53;6.25;;;5.65;;
47299;SDS011;33036;51.320;17.234;2022-08-04T09:52:04;12.13;;;6.03;;
47299;SDS011;33036;51.320;17.234;2022-08-04T10:00:22;9.65;;;5.78;;
47299;SDS011;33036;51.320;17.234;2022-08-04T10:04:30;10.10;;;5.65;;
47299;SDS011;33036;51.320;17.234;2022-08-04T10:25:37;7.45;;;4.80;;
47299;SDS011;33036;51.320;17.234;2022-08-04T10:29:45;7.10;;;4.82;;
47299;SDS011;33036;51.320;17.234;2022-08-04T10:33:51;9.85;;;4.88;;
47299;SDS011;33036;51.320;17.234;2022-08-04T10:38:17;4.97;;;4.43;;
47299;SDS011;33036;51.320;17.234;2022-08-04T10:42:31;9.05;;;4.18;;
47299;SDS011;33036;51.320;17.234;2022-08-04T10:46:36;8.90;;;4.82;;
47299;SDS011;33036;51.320;17.234;2022-08-04T10:50:47;14.48;;;5.10;;
47299;SDS011;33036;51.320;17.234;2022-08-04T10:58:59;9.02;;;5.22;;
47299;SDS011;33036;51.320;17.234;2022-08-04T11:07:08;7.72;;;4.60;;
47299;SDS011;33036;51.320;17.234;2022-08-04T11:15:45;5.95;;;4.78;;
47299;SDS011;33036;51.320;17.234;2022-08-04T11:20:01;7.00;;;5.10;;
47299;SDS011;33036;51.320;17.234;2022-08-04T11:24:22;5.68;;;4.57;;
47299;SDS011;33036;51.320;17.234;2022-08-04T11:33:26;6.85;;;5.00;;
47299;SDS011;33036;51.320;17.234;2022-08-04T11:38:11;8.55;;;4.78;;
47299;SDS011;33036;51.320;17.234;2022-08-04T11:46:22;7.05;;;4.82;;
47299;SDS011;33036;51.320;17.234;2022-08-04T11:50:36;7.57;;;4.15;;
47299;SDS011;33036;51.320;17.234;2022-08-04T11:54:41;4.82;;;4.20;;
47299;SDS011;33036;51.320;17.234;2022-08-04T11:58:43;5.47;;;4.60;;
47299;SDS011;33036;51.320;17.234;2022-08-04T12:07:06;8.90;;;4.80;;
47299;SDS011;33036;51.320;17.234;2022-08-04T12:15:38;5.88;;;4.43;;
47299;SDS011;33036;51.320;17.234;2022-08-04T12:19:49;6.03;;;4.28;;
47299;SDS011;33036;51.320;17.234;2022-08-04T12:23:52;5.18;;;4.55;;
47299;SDS011;33036;51.320;17.234;2022-08-04T12:27:59;6.53;;;4.57;;
47299;SDS011;33036;51.320;17.234;2022-08-04T12:40:54;10.57;;;4.75;;
47299;SDS011;33036;51.320;17.234;2022-08-04T12:44:54;6.18;;;4.40;;
47299;SDS011;33036;51.320;17.234;2022-08-04T12:48:58;8.32;;;5.00;;
47299;SDS011;33036;51.320;17.234;2022-08-04T12:53:00;5.80;;;4.55;;
47299;SDS011;33036;51.320;17.234;2022-08-04T12:57:11;7.25;;;4.38;;
47299;SDS011;33036;51.320;17.234;2022-08-04T13:05:18;6.25;;;4.00;;
47299;SDS011;33036;51.320;17.234;2022-08-04T13:09:21;5.10;;;4.35;;
47299;SDS011;33036;51.320;17.234;2022-08-04T13:13:24;8.57;;;4.35;;
47299;SDS011;33036;51.320;17.234;2022-08-04T13:17:38;7.82;;;3.92;;
47299;SDS011;33036;51.320;17.234;2022-08-04T13:21:43;7.40;;;3.67;;
47299;SDS011;33036;51.320;17.234;2022-08-04T13:25:45;5.00;;;3.50;;
47299;SDS011;33036;51.320;17.234;2022-08-04T13:29:48;6.88;;;3.50;;
47299;SDS011;33036;51.320;17.234;2022-08-04T13:33:52;7.25;;;3.70;;
47299;SDS011;33036;51.320;17.234;2022-08-04T13:37:55;6.75;;;4.10;;
47299;SDS011;33036;51.320;17.234;2022-08-04T13:41:59;4.85;;;4.20;;
47299;SDS011;33036;51.320;17.234;2022-08-04T13:46:03;5.82;;;3.72;;
47299;SDS011;33036;51.320;17.234;2022-08-04T13:50:16;7.82;;;3.63;;
47299;SDS011;33036;51.320;17.234;2022-08-04T13:58:43;7.38;;;4.53;;
47299;SDS011;33036;51.320;17.234;2022-08-04T14:02:46;5.50;;;4.55;;
47299;SDS011;33036;51.320;17.234;2022-08-04T14:06:50;7.10;;;4.45;;
47299;SDS011;33036;51.320;17.234;2022-08-04T14:10:55;6.25;;;4.80;;
47299;SDS011;33036;51.320;17.234;2022-08-04T14:14:57;6.78;;;4.68;;
47299;SDS011;33036;51.320;17.234;2022-08-04T14:18:59;9.23;;;4.32;;
47299;SDS011;33036;51.320;17.234;2022-08-04T14:23:01;6.20;;;4.32;;
47299;SDS011;33036;51.320;17.234;2022-08-04T14:27:05;9.63;;;4.55;;
47299;SDS011;33036;51.320;17.234;2022-08-04T14:31:10;4.97;;;4.22;;
47299;SDS011;33036;51.320;17.234;2022-08-04T14:35:12;6.50;;;4.30;;
47299;SDS011;33036;51.320;17.234;2022-08-04T14:39:13;5.65;;;3.95;;
47299;SDS011;33036;51.320;17.234;2022-08-04T14:43:16;7.75;;;4.30;;
47299;SDS011;33036;51.320;17.234;2022-08-04T14:47:18;6.53;;;4.15;;
47299;SDS011;33036;51.320;17.234;2022-08-04T14:51:39;7.18;;;4.60;;
47299;SDS011;33036;51.320;17.234;2022-08-04T14:55:50;5.88;;;4.88;;
47299;SDS011;33036;51.320;17.234;2022-08-04T14:59:53;6.40;;;4.30;;
47299;SDS011;33036;51.320;17.234;2022-08-04T15:03:54;7.10;;;4.28;;
47299;SDS011;33036;51.320;17.234;2022-08-04T15:07:57;7.13;;;4.45;;
47299;SDS011;33036;51.320;17.234;2022-08-04T15:11:58;5.35;;;4.85;;
47299;SDS011;33036;51.320;17.234;2022-08-04T15:15:59;6.13;;;4.53;;
47299;SDS011;33036;51.320;17.234;2022-08-04T15:20:00;8.15;;;4.25;;
47299;SDS011;33036;51.320;17.234;2022-08-04T15:24:02;7.32;;;3.80;;
47299;SDS011;33036;51.320;17.234;2022-08-04T15:28:03;8.02;;;3.83;;
47299;SDS011;33036;51.320;17.234;2022-08-04T15:32:05;4.72;;;3.88;;
47299;SDS011;33036;51.320;17.234;2022-08-04T15:36:12;5.03;;;3.55;;
47299;SDS011;33036;51.320;17.234;2022-08-04T15:48:50;7.20;;;4.25;;
47299;SDS011;33036;51.320;17.234;2022-08-04T15:56:58;35.67;;;23.15;;
47299;SDS011;33036;51.320;17.234;2022-08-04T16:09:25;7.53;;;4.75;;
47299;SDS011;33036;51.320;17.234;2022-08-04T16:13:27;5.43;;;4.25;;
47299;SDS011;33036;51.320;17.234;2022-08-04T16:17:27;8.30;;;4.65;;
47299;SDS011;33036;51.320;17.234;2022-08-04T16:21:28;6.10;;;4.60;;
47299;SDS011;33036;51.320;17.234;2022-08-04T16:25:41;7.65;;;5.55;;
47299;SDS011;33036;51.320;17.234;2022-08-04T16:29:44;6.97;;;4.97;;
47299;SDS011;33036;51.320;17.234;2022-08-04T16:33:48;7.40;;;5.40;;
47299;SDS011;33036;51.320;17.234;2022-08-04T16:37:53;8.07;;;5.55;;
47299;SDS011;33036;51.320;17.234;2022-08-04T16:41:55;8.07;;;4.82;;
47299;SDS011;33036;51.320;17.234;2022-08-04T16:45:57;5.97;;;5.07;;
47299;SDS011;33036;51.320;17.234;2022-08-04T16:50:00;7.68;;;4.25;;
47299;SDS011;33036;51.320;17.234;2022-08-04T16:54:01;7.55;;;4.68;;
47299;SDS011;33036;51.320;17.234;2022-08-04T16:58:02;11.85;;;5.30;;
47299;SDS011;33036;51.320;17.234;2022-08-04T17:02:03;7.20;;;5.30;;
47299;SDS011;33036;51.320;17.234;2022-08-04T17:06:10;6.78;;;5.18;;
47299;SDS011;33036;51.320;17.234;2022-08-04T17:10:14;7.50;;;5.60;;
47299;SDS011;33036;51.320;17.234;2022-08-04T17:14:25;8.77;;;5.40;;
47299;SDS011;33036;51.320;17.234;2022-08-04T17:18:28;7.18;;;5.03;;
47299;SDS011;33036;51.320;17.234;2022-08-04T17:22:31;11.15;;;5.25;;
47299;SDS011;33036;51.320;17.234;2022-08-04T17:26:33;10.25;;;5.68;;
47299;SDS011;33036;51.320;17.234;2022-08-04T17:30:35;10.57;;;5.25;;
47299;SDS011;33036;51.320;17.234;2022-08-04T17:34:36;6.78;;;5.20;;
47299;SDS011;33036;51.320;17.234;2022-08-04T17:38:39;7.78;;;5.63;;
47299;SDS011;33036;51.320;17.234;2022-08-04T17:42:44;14.50;;;5.75;;
47299;SDS011;33036;51.320;17.234;2022-08-04T17:46:45;15.80;;;5.35;;
47299;SDS011;33036;51.320;17.234;2022-08-04T17:50:46;13.13;;;6.28;;
47299;SDS011;33036;51.320;17.234;2022-08-04T17:54:49;17.05;;;8.23;;
47299;SDS011;33036;51.320;17.234;2022-08-04T18:03:34;11.95;;;5.95;;
47299;SDS011;33036;51.320;17.234;2022-08-04T18:07:41;11.15;;;6.40;;
47299;SDS011;33036;51.320;17.234;2022-08-04T18:11:42;11.23;;;5.70;;
47299;SDS011;33036;51.320;17.234;2022-08-04T18:16:03;12.63;;;5.88;;
47299;SDS011;33036;51.320;17.234;2022-08-04T18:20:08;12.18;;;6.25;;
47299;SDS011;33036;51.320;17.234;2022-08-04T18:24:12;12.35;;;5.90;;
47299;SDS011;33036;51.320;17.234;2022-08-04T18:28:13;20.38;;;6.20;;
47299;SDS011;33036;51.320;17.234;2022-08-04T18:32:14;12.25;;;5.80;;
47299;SDS011;33036;51.320;17.234;2022-08-04T18:36:15;13.13;;;6.40;;
47299;SDS011;33036;51.320;17.234;2022-08-04T18:40:16;14.07;;;6.20;;
47299;SDS011;33036;51.320;17.234;2022-08-04T18:44:19;15.48;;;5.95;;
47299;SDS011;33036;51.320;17.234;2022-08-04T18:48:20;13.95;;;5.93;;
47299;SDS011;33036;51.320;17.234;2022-08-04T18:52:21;13.73;;;6.28;;
47299;SDS011;33036;51.320;17.234;2022-08-04T18:56:22;16.92;;;5.68;;
47299;SDS011;33036;51.320;17.234;2022-08-04T19:00:23;10.05;;;6.07;;
47299;SDS011;33036;51.320;17.234;2022-08-04T19:04:24;9.15;;;6.45;;
47299;SDS011;33036;51.320;17.234;2022-08-04T19:08:25;10.45;;;5.60;;
47299;SDS011;33036;51.320;17.234;2022-08-04T19:12:27;8.43;;;5.65;;
47299;SDS011;33036;51.320;17.234;2022-08-04T19:16:29;14.20;;;5.22;;
47299;SDS011;33036;51.320;17.234;2022-08-04T19:20:31;10.75;;;5.95;;
47299;SDS011;33036;51.320;17.234;2022-08-04T19:24:32;18.05;;;5.82;;
47299;SDS011;33036;51.320;17.234;2022-08-04T19:28:33;9.27;;;5.70;;
47299;SDS011;33036;51.320;17.234;2022-08-04T19:32:35;9.23;;;5.50;;
47299;SDS011;33036;51.320;17.234;2022-08-04T19:36:36;12.65;;;5.35;;
47299;SDS011;33036;51.320;17.234;2022-08-04T19:40:37;10.65;;;5.00;;
47299;SDS011;33036;51.320;17.234;2022-08-04T19:44:38;12.75;;;5.20;;
47299;SDS011;33036;51.320;17.234;2022-08-04T19:48:40;13.60;;;5.50;;
47299;SDS011;33036;51.320;17.234;2022-08-04T19:52:42;13.15;;;5.75;;
47299;SDS011;33036;51.320;17.234;2022-08-04T19:56:43;9.30;;;5.45;;
47299;SDS011;33036;51.320;17.234;2022-08-04T20:01:07;11.60;;;5.88;;
47299;SDS011;33036;51.320;17.234;2022-08-04T20:05:08;8.57;;;6.13;;
47299;SDS011;33036;51.320;17.234;2022-08-04T20:09:10;26.17;;;5.47;;
47299;SDS011;33036;51.320;17.234;2022-08-04T20:13:11;11.57;;;5.68;;
47299;SDS011;33036;51.320;17.234;2022-08-04T20:17:13;14.07;;;5.57;;
47299;SDS011;33036;51.320;17.234;2022-08-04T20:21:15;11.70;;;5.90;;
47299;SDS011;33036;51.320;17.234;2022-08-04T20:25:16;9.13;;;5.95;;
47299;SDS011;33036;51.320;17.234;2022-08-04T20:29:17;7.50;;;5.32;;
47299;SDS011;33036;51.320;17.234;2022-08-04T20:33:20;12.07;;;5.50;;
47299;SDS011;33036;51.320;17.234;2022-08-04T20:37:22;13.60;;;6.00;;
47299;SDS011;33036;51.320;17.234;2022-08-04T20:41:25;9.77;;;5.43;;
47299;SDS011;33036;51.320;17.234;2022-08-04T20:45:25;12.50;;;5.38;;
47299;SDS011;33036;51.320;17.234;2022-08-04T20:49:27;8.18;;;5.32;;
47299;SDS011;33036;51.320;17.234;2022-08-04T20:53:28;26.75;;;6.18;;
47299;SDS011;33036;51.320;17.234;2022-08-04T20:57:29;13.25;;;4.88;;
47299;SDS011;33036;51.320;17.234;2022-08-04T21:01:29;11.63;;;5.28;;
47299;SDS011;33036;51.320;17.234;2022-08-04T21:05:31;12.95;;;5.00;;
47299;SDS011;33036;51.320;17.234;2022-08-04T21:09:32;8.77;;;5.50;;
47299;SDS011;33036;51.320;17.234;2022-08-04T21:13:38;6.57;;;4.85;;
47299;SDS011;33036;51.320;17.234;2022-08-04T21:17:39;7.28;;;4.85;;
47299;SDS011;33036;51.320;17.234;2022-08-04T21:21:41;11.88;;;4.78;;
47299;SDS011;33036;51.320;17.234;2022-08-04T21:25:42;7.03;;;4.72;;
47299;SDS011;33036;51.320;17.234;2022-08-04T21:29:45;9.15;;;4.85;;
47299;SDS011;33036;51.320;17.234;2022-08-04T21:33:45;14.05;;;5.05;;
47299;SDS011;33036;51.320;17.234;2022-08-04T21:37:46;9.65;;;5.60;;
47299;SDS011;33036;51.320;17.234;2022-08-04T21:41:47;11.02;;;4.80;;
47299;SDS011;33036;51.320;17.234;2022-08-04T21:45:49;10.70;;;5.53;;
47299;SDS011;33036;51.320;17.234;2022-08-04T21:49:49;15.93;;;4.40;;
47299;SDS011;33036;51.320;17.234;2022-08-04T21:53:51;9.27;;;4.85;;
47299;SDS011;33036;51.320;17.234;2022-08-04T21:57:52;10.52;;;5.20;;
47299;SDS011;33036;51.320;17.234;2022-08-04T22:01:53;13.65;;;5.45;;
47299;SDS011;33036;51.320;17.234;2022-08-04T22:05:55;9.35;;;5.10;;
47299;SDS011;33036;51.320;17.234;2022-08-04T22:09:58;9.48;;;4.88;;
47299;SDS011;33036;51.320;17.234;2022-08-04T22:14:01;6.70;;;4.90;;
47299;SDS011;33036;51.320;17.234;2022-08-04T22:18:04;11.70;;;5.28;;
47299;SDS011;33036;51.320;17.234;2022-08-04T22:22:08;23.40;;;4.75;;
47299;SDS011;33036;51.320;17.234;2022-08-04T22:26:16;13.85;;;4.90;;
47299;SDS011;33036;51.320;17.234;2022-08-04T22:30:18;15.55;;;5.03;;
47299;SDS011;33036;51.320;17.234;2022-08-04T22:34:19;9.05;;;5.18;;
47299;SDS011;33036;51.320;17.234;2022-08-04T22:38:20;10.85;;;5.30;;
47299;SDS011;33036;51.320;17.234;2022-08-04T22:42:21;7.55;;;4.82;;
47299;SDS011;33036;51.320;17.234;2022-08-04T22:46:25;9.43;;;5.13;;
47299;SDS011;33036;51.320;17.234;2022-08-04T22:50:29;12.25;;;5.20;;
47299;SDS011;33036;51.320;17.234;2022-08-04T22:54:30;8.68;;;5.07;;
47299;SDS011;33036;51.320;17.234;2022-08-04T22:58:31;10.85;;;4.80;;
47299;SDS011;33036;51.320;17.234;2022-08-04T23:02:32;7.90;;;5.20;;
47299;SDS011;33036;51.320;17.234;2022-08-04T23:06:33;14.63;;;5.15;;
47299;SDS011;33036;51.320;17.234;2022-08-04T23:10:34;8.95;;;4.65;;
47299;SDS011;33036;51.320;17.234;2022-08-04T23:14:35;10.65;;;4.88;;
47299;SDS011;33036;51.320;17.234;2022-08-04T23:18:36;11.18;;;5.07;;
47299;SDS011;33036;51.320;17.234;2022-08-04T23:22:38;14.98;;;5.30;;
47299;SDS011;33036;51.320;17.234;2022-08-04T23:26:38;9.55;;;4.90;;
47299;SDS011;33036;51.320;17.234;2022-08-04T23:30:39;11.40;;;4.78;;
47299;SDS011;33036;51.320;17.234;2022-08-04T23:34:40;7.60;;;5.00;;
47299;SDS011;33036;51.320;17.234;2022-08-04T23:38:41;9.30;;;5.05;;
47299;SDS011;33036;51.320;17.234;2022-08-04T23:42:45;13.18;;;5.20;;
47299;SDS011;33036;51.320;17.234;2022-08-04T23:46:46;9.10;;;5.28;;
47299;SDS011;33036;51.320;17.234;2022-08-04T23:50:47;9.27;;;5.47;;
47299;SDS011;33036;51.320;17.234;2022-08-04T23:54:51;19.15;;;5.55;;
47299;SDS011;33036;51.320;17.234;2022-08-04T23:58:52;8.00;;;5.32;;
